createdAt,value
2022-08-19T00:02:04.501Z,12.33
2022-08-19T00:04:37.372Z,18.57
2022-08-19T00:07:07.565Z,17.70
2022-08-19T00:09:34.921Z,13.77
2022-08-19T00:12:02.706Z,14.03
2022-08-19T00:14:32.320Z,14.47
2022-08-19T00:16:59.887Z,17.13
2022-08-19T00:19:30.335Z,17.43
2022-08-19T00:21:57.549Z,15.47
2022-08-19T00:24:24.834Z,10.90
2022-08-19T00:26:53.523Z,12.83
2022-08-19T00:29:23.203Z,11.73
2022-08-19T00:31:54.492Z,13.13
2022-08-19T00:34:23.159Z,11.70
2022-08-19T00:36:50.447Z,12.03
2022-08-19T00:39:18.481Z,23.00
2022-08-19T00:41:49.945Z,15.10
2022-08-19T00:44:28.336Z,15.97
2022-08-19T00:46:59.836Z,15.73
2022-08-19T00:49:52.242Z,16.67
2022-08-19T00:52:29.783Z,10.80
2022-08-19T00:54:59.397Z,14.33
2022-08-19T00:57:35.246Z,13.00
2022-08-19T01:00:07.901Z,14.33
2022-08-19T01:02:34.807Z,19.80
2022-08-19T01:05:09.026Z,19.27
2022-08-19T01:07:39.702Z,16.47
2022-08-19T01:10:12.345Z,15.60
2022-08-19T01:12:40.373Z,16.60
2022-08-19T01:15:10.679Z,15.53
2022-08-19T01:17:41.797Z,13.27
2022-08-19T01:20:17.545Z,14.37
2022-08-19T01:22:48.338Z,11.03
2022-08-19T01:25:19.477Z,12.27
2022-08-19T01:27:53.346Z,12.07
2022-08-19T01:30:34.060Z,11.30
2022-08-19T01:33:02.629Z,13.10
2022-08-19T01:35:32.408Z,12.13
2022-08-19T01:38:08.516Z,10.73
2022-08-19T01:40:40.898Z,13.80
2022-08-19T01:43:08.708Z,14.97
2022-08-19T01:45:38.432Z,11.90
2022-08-19T01:48:06.009Z,16.10
2022-08-19T01:50:35.839Z,10.60
2022-08-19T01:53:08.044Z,14.37
2022-08-19T01:55:41.544Z,11.90
2022-08-19T01:58:19.687Z,9.50
2022-08-19T02:00:48.592Z,10.03
2022-08-19T02:03:16.905Z,13.03
2022-08-19T02:05:46.545Z,15.33
2022-08-19T02:08:13.724Z,13.93
2022-08-19T02:10:44.027Z,10.07
2022-08-19T02:13:12.393Z,15.13
2022-08-19T02:15:39.816Z,14.17
2022-08-19T02:18:08.287Z,11.80
2022-08-19T02:20:36.614Z,14.17
2022-08-19T02:23:04.476Z,12.63
2022-08-19T02:25:31.512Z,10.70
2022-08-19T02:27:58.488Z,11.37
2022-08-19T02:30:25.973Z,18.73
2022-08-19T02:32:54.001Z,10.57
2022-08-19T02:35:22.388Z,11.60
2022-08-19T02:38:08.118Z,10.53
2022-08-19T02:40:35.672Z,9.93
2022-08-19T02:43:09.377Z,13.80
2022-08-19T02:45:40.520Z,11.23
2022-08-19T02:48:17.925Z,11.40
2022-08-19T02:50:54.687Z,9.80
2022-08-19T02:53:27.777Z,10.17
2022-08-19T02:55:55.825Z,10.33
2022-08-19T02:58:25.163Z,11.43
2022-08-19T03:00:57.408Z,11.60
2022-08-19T03:03:24.547Z,12.63
2022-08-19T03:05:56.851Z,11.60
2022-08-19T03:08:26.720Z,10.47
2022-08-19T03:10:54.796Z,14.67
2022-08-19T03:13:24.214Z,17.93
2022-08-19T03:15:51.243Z,10.07
2022-08-19T03:18:19.079Z,12.90
2022-08-19T03:20:53.024Z,10.93
2022-08-19T03:23:19.973Z,12.60
2022-08-19T03:26:03.991Z,9.90
2022-08-19T03:28:38.803Z,9.83
2022-08-19T03:31:43.584Z,9.10
2022-08-19T03:33:59.714Z,11.80
2022-08-19T03:36:29.612Z,12.70
2022-08-19T03:39:01.480Z,9.83
2022-08-19T03:41:44.487Z,8.43
2022-08-19T03:44:23.065Z,7.40
2022-08-19T03:47:00.014Z,10.83
2022-08-19T03:49:31.305Z,9.87
2022-08-19T03:52:01.397Z,8.80
2022-08-19T03:54:29.407Z,9.13
2022-08-19T03:56:58.150Z,10.20
2022-08-19T03:59:30.320Z,10.63
2022-08-19T04:02:00.791Z,8.37
2022-08-19T04:04:29.796Z,8.23
2022-08-19T04:06:59.156Z,8.40
2022-08-19T04:09:26.776Z,9.13
2022-08-19T04:11:57.898Z,9.83
2022-08-19T04:14:31.192Z,12.93
2022-08-19T04:17:00.463Z,12.40
2022-08-19T04:19:29.975Z,7.43
2022-08-19T04:21:56.917Z,10.40
2022-08-19T04:24:24.553Z,11.20
2022-08-19T04:26:52.404Z,9.27
2022-08-19T04:29:25.691Z,8.60
2022-08-19T04:31:55.700Z,7.30
2022-08-19T04:34:27.803Z,8.80
2022-08-19T04:36:57.098Z,9.23
2022-08-19T04:39:50.491Z,11.90
2022-08-19T04:42:45.513Z,8.57
2022-08-19T04:45:15.919Z,20.27
2022-08-19T04:47:47.699Z,13.53
2022-08-19T04:50:27.081Z,9.30
2022-08-19T04:52:54.649Z,12.33
2022-08-19T04:55:22.057Z,9.27
2022-08-19T04:57:49.821Z,8.30
2022-08-19T05:00:16.879Z,10.20
2022-08-19T05:02:44.113Z,9.53
2022-08-19T05:05:11.448Z,14.73
2022-08-19T05:07:38.352Z,15.90
2022-08-19T05:10:06.978Z,17.97
2022-08-19T05:12:34.716Z,19.13
2022-08-19T05:15:05.377Z,18.67
2022-08-19T05:17:37.773Z,14.57
2022-08-19T05:20:27.012Z,22.87
2022-08-19T05:22:54.129Z,16.73
2022-08-19T05:25:22.397Z,21.20
2022-08-19T05:27:49.712Z,20.87
2022-08-19T05:30:18.274Z,23.20
2022-08-19T05:32:45.721Z,16.97
2022-08-19T05:35:13.087Z,16.07
2022-08-19T05:37:43.781Z,15.57
2022-08-19T05:40:11.830Z,16.00
2022-08-19T05:42:39.017Z,15.60
2022-08-19T05:45:07.390Z,16.13
2022-08-19T05:47:34.326Z,21.87
2022-08-19T05:50:05.154Z,21.70
2022-08-19T05:52:32.566Z,23.23
2022-08-19T05:55:01.046Z,21.20
2022-08-19T05:57:29.924Z,23.93
2022-08-19T05:59:59.100Z,25.67
2022-08-19T06:02:28.391Z,19.90
2022-08-19T06:04:56.102Z,19.50
2022-08-19T06:07:23.801Z,16.43
2022-08-19T06:10:00.585Z,21.27
2022-08-19T06:12:35.189Z,23.37
2022-08-19T06:15:12.484Z,19.57
2022-08-19T06:17:40.080Z,18.17
2022-08-19T06:20:14.150Z,21.97
2022-08-19T06:22:45.381Z,17.53
2022-08-19T06:25:14.690Z,18.47
2022-08-19T06:28:11.481Z,22.53
2022-08-19T06:30:29.971Z,20.83
2022-08-19T06:32:56.885Z,22.47
2022-08-19T06:35:24.195Z,16.47
2022-08-19T06:37:51.237Z,15.73
2022-08-19T06:40:18.590Z,19.87
2022-08-19T06:42:54.424Z,15.27
2022-08-19T06:45:24.577Z,12.17
2022-08-19T06:47:55.210Z,13.30
2022-08-19T06:50:25.222Z,25.27
2022-08-19T06:52:52.332Z,10.20
2022-08-19T06:55:20.209Z,12.03
2022-08-19T06:57:49.080Z,11.87
2022-08-19T07:00:16.842Z,9.23
2022-08-19T07:02:49.685Z,10.40
2022-08-19T07:05:23.394Z,8.80
2022-08-19T07:07:50.978Z,8.40
2022-08-19T07:10:19.318Z,16.03
2022-08-19T07:12:47.521Z,9.10
2022-08-19T07:15:14.597Z,9.33
2022-08-19T07:17:42.163Z,9.60
2022-08-19T07:20:11.102Z,13.10
2022-08-19T07:22:40.080Z,13.87
2022-08-19T07:25:10.728Z,12.60
2022-08-19T07:27:39.490Z,10.53
2022-08-19T07:30:11.655Z,11.73
2022-08-19T07:32:40.368Z,10.30
2022-08-19T07:35:09.427Z,15.73
2022-08-19T07:37:38.194Z,13.60
2022-08-19T07:40:08.393Z,12.30
2022-08-19T07:42:35.375Z,12.87
2022-08-19T07:45:02.345Z,17.53
2022-08-19T07:47:48.056Z,16.27
2022-08-19T07:50:18.851Z,17.00
2022-08-19T07:52:48.994Z,17.07
2022-08-19T07:55:42.111Z,15.53
2022-08-19T07:58:15.337Z,18.80
2022-08-19T08:00:44.511Z,18.10
2022-08-19T08:03:12.579Z,19.33
2022-08-19T08:05:58.523Z,16.88
2022-08-19T08:08:47.891Z,19.58
2022-08-19T08:11:20.518Z,17.40
2022-08-19T08:14:00.484Z,15.30
2022-08-19T08:16:34.803Z,17.23
2022-08-19T08:19:01.791Z,19.83
2022-08-19T08:21:28.816Z,23.63
2022-08-19T08:23:56.712Z,20.27
2022-08-19T08:26:25.906Z,20.42
2022-08-19T08:28:54.264Z,47.25
2022-08-19T08:31:21.346Z,18.02
2022-08-19T08:33:48.899Z,19.80
2022-08-19T08:36:17.262Z,17.45
2022-08-19T08:38:49.005Z,18.58
2022-08-19T08:41:47.351Z,17.30
2022-08-19T08:47:31.561Z,13.02
2022-08-19T08:50:07.762Z,14.43
2022-08-19T08:52:51.373Z,13.15
2022-08-19T08:55:27.940Z,11.32
2022-08-19T08:58:21.592Z,12.45
2022-08-19T09:00:50.894Z,9.55
2022-08-19T09:03:23.162Z,9.18
2022-08-19T09:06:23.628Z,7.70
2022-08-19T09:09:23.225Z,7.47
2022-08-19T09:12:39.855Z,7.00
2022-08-19T09:15:14.456Z,6.20
2022-08-19T09:17:41.609Z,6.43
2022-08-19T09:20:11.758Z,6.63
2022-08-19T09:22:45.002Z,5.85
2022-08-19T09:25:17.090Z,8.32
2022-08-19T09:28:02.573Z,8.88
2022-08-19T09:30:35.523Z,5.53
2022-08-19T09:33:03.222Z,9.70
2022-08-19T09:35:31.387Z,6.15
2022-08-19T09:38:00.122Z,16.27
2022-08-19T09:40:35.470Z,10.25
2022-08-19T09:43:10.085Z,7.55
2022-08-19T09:45:40.443Z,10.55
2022-08-19T09:48:07.339Z,7.20
2022-08-19T09:50:39.468Z,9.38
2022-08-19T09:53:19.941Z,8.82
2022-08-19T09:55:46.966Z,8.27
2022-08-19T09:58:13.918Z,10.35
2022-08-19T10:00:40.922Z,8.75
2022-08-19T10:03:07.790Z,8.73
2022-08-19T10:05:55.201Z,6.30
2022-08-19T10:08:34.805Z,8.30
2022-08-19T10:11:28.340Z,8.20
2022-08-19T10:13:50.676Z,7.90
2022-08-19T10:16:22.435Z,6.65
2022-08-19T10:18:58.920Z,5.43
2022-08-19T10:21:32.106Z,5.00
2022-08-19T10:24:04.852Z,5.20
2022-08-19T10:26:37.914Z,7.07
2022-08-19T10:29:06.596Z,6.63
2022-08-19T10:32:02.219Z,11.32
2022-08-19T10:34:28.045Z,5.45
2022-08-19T10:37:01.010Z,4.85
2022-08-19T10:39:42.977Z,4.57
2022-08-19T10:42:11.635Z,5.57
2022-08-19T10:44:38.727Z,5.70
2022-08-19T10:47:24.373Z,6.32
2022-08-19T10:50:13.644Z,5.15
2022-08-19T10:52:49.865Z,5.47
2022-08-19T10:55:43.999Z,5.95
2022-08-19T10:58:14.592Z,5.95
2022-08-19T11:00:44.186Z,12.15
2022-08-19T11:03:11.930Z,9.18
2022-08-19T11:05:40.366Z,5.93
2022-08-19T11:08:22.170Z,7.10
2022-08-19T11:11:01.474Z,5.93
2022-08-19T11:13:30.977Z,7.63
2022-08-19T11:16:06.547Z,6.82
2022-08-19T11:18:38.651Z,7.55
2022-08-19T11:21:19.793Z,7.75
2022-08-19T11:23:50.127Z,6.13
2022-08-19T11:26:18.703Z,9.63
2022-08-19T11:28:47.980Z,5.20
2022-08-19T11:31:32.277Z,5.55
2022-08-19T11:34:04.850Z,5.65
2022-08-19T11:36:35.766Z,8.30
2022-08-19T11:39:06.066Z,6.15
2022-08-19T11:41:36.798Z,6.57
2022-08-19T11:44:05.462Z,6.38
2022-08-19T11:46:32.911Z,7.88
2022-08-19T11:49:01.687Z,9.07
2022-08-19T11:51:29.848Z,8.90
2022-08-19T11:53:59.420Z,7.90
2022-08-19T11:56:28.884Z,8.00
2022-08-19T11:58:57.775Z,6.97
2022-08-19T12:01:27.310Z,7.63
2022-08-19T12:03:57.541Z,7.35
2022-08-19T12:06:33.376Z,7.13
2022-08-19T12:09:06.574Z,6.15
2022-08-19T12:11:34.747Z,10.38
2022-08-19T12:14:01.996Z,5.05
2022-08-19T12:16:33.535Z,5.60
2022-08-19T12:19:04.803Z,5.35
2022-08-19T12:21:36.045Z,5.65
2022-08-19T12:24:06.016Z,7.82
2022-08-19T12:26:36.051Z,6.82
2022-08-19T12:29:24.017Z,14.52
2022-08-19T12:31:52.841Z,7.45
2022-08-19T12:34:21.019Z,7.00
2022-08-19T12:36:50.082Z,6.95
2022-08-19T12:39:17.230Z,6.50
2022-08-19T12:41:54.282Z,11.20
2022-08-19T12:44:29.007Z,7.32
2022-08-19T12:46:57.863Z,11.27
2022-08-19T12:49:53.160Z,7.78
2022-08-19T12:52:16.627Z,7.05
2022-08-19T12:54:48.488Z,10.48
2022-08-19T12:57:19.528Z,8.43
2022-08-19T12:59:46.560Z,8.15
2022-08-19T13:02:13.614Z,8.57
2022-08-19T13:04:41.731Z,8.23
2022-08-19T13:07:10.048Z,12.63
2022-08-19T13:09:37.193Z,6.97
2022-08-19T13:12:08.621Z,7.47
2022-08-19T13:14:36.284Z,7.15
2022-08-19T13:17:04.410Z,7.18
2022-08-19T13:19:32.490Z,6.75
2022-08-19T13:22:00.519Z,7.13
2022-08-19T13:24:33.611Z,5.85
2022-08-19T13:27:04.464Z,10.43
2022-08-19T13:29:50.397Z,6.40
2022-08-19T13:32:37.025Z,6.93
2022-08-19T13:35:05.996Z,5.95
2022-08-19T13:37:45.462Z,4.90
2022-08-19T13:40:24.942Z,5.00
2022-08-19T13:42:55.825Z,5.32
2022-08-19T13:45:26.989Z,6.07
2022-08-19T13:47:59.705Z,7.05
2022-08-19T13:50:34.532Z,5.32
2022-08-19T13:53:03.272Z,5.82
2022-08-19T13:55:31.008Z,5.50
2022-08-19T13:58:02.667Z,4.35
2022-08-19T14:00:36.732Z,4.53
2022-08-19T14:03:09.438Z,4.45
2022-08-19T14:05:37.529Z,4.03
2022-08-19T14:08:05.462Z,4.50
2022-08-19T14:10:33.236Z,5.00
2022-08-19T14:13:04.629Z,6.72
2022-08-19T14:15:32.188Z,7.75
2022-08-19T14:18:03.162Z,5.43
2022-08-19T14:20:30.539Z,6.82
2022-08-19T14:22:57.400Z,6.20
2022-08-19T14:25:28.981Z,5.70
2022-08-19T14:27:56.776Z,6.57
2022-08-19T14:30:33.379Z,8.32
2022-08-19T14:33:03.577Z,6.82
2022-08-19T14:35:36.124Z,10.80
2022-08-19T14:38:06.756Z,8.18
2022-08-19T14:40:34.420Z,6.47
2022-08-19T14:43:05.356Z,6.95
2022-08-19T14:45:40.755Z,6.05
2022-08-19T14:48:12.525Z,6.85
2022-08-19T14:50:47.424Z,6.72
2022-08-19T14:53:14.391Z,5.68
2022-08-19T14:55:46.755Z,7.28
2022-08-19T14:58:29.230Z,7.13
2022-08-19T15:01:00.214Z,6.85
2022-08-19T15:03:28.152Z,8.57
2022-08-19T15:05:58.511Z,6.25
2022-08-19T15:08:27.367Z,7.88
2022-08-19T15:10:54.748Z,5.25
2022-08-19T15:13:22.223Z,5.15
2022-08-19T15:15:49.813Z,5.47
2022-08-19T15:18:16.808Z,6.45
2022-08-19T15:20:46.639Z,6.05
2022-08-19T15:23:16.442Z,4.72
2022-08-19T15:25:44.404Z,7.32
2022-08-19T15:28:13.221Z,5.63
2022-08-19T15:30:41.506Z,3.88
2022-08-19T15:33:09.013Z,4.55
2022-08-19T15:35:35.887Z,4.60
2022-08-19T15:38:03.530Z,6.57
2022-08-19T15:40:30.644Z,4.97
2022-08-19T15:42:58.753Z,3.95
2022-08-19T15:45:32.474Z,5.43
2022-08-19T15:48:01.699Z,6.28
2022-08-19T15:50:31.826Z,7.22
2022-08-19T15:53:09.427Z,4.13
2022-08-19T15:55:44.451Z,4.68
2022-08-19T15:58:33.198Z,5.70
2022-08-19T16:01:26.973Z,6.22
2022-08-19T16:04:16.482Z,13.48
2022-08-19T16:06:53.638Z,5.32
2022-08-19T16:09:27.543Z,7.13
2022-08-19T16:12:02.805Z,7.05
2022-08-19T16:14:33.989Z,5.60
2022-08-19T16:17:01.934Z,7.30
2022-08-19T16:19:28.856Z,10.48
2022-08-19T16:21:57.349Z,7.40
2022-08-19T16:24:27.570Z,6.38
2022-08-19T16:26:55.878Z,5.95
2022-08-19T16:29:33.870Z,7.60
2022-08-19T16:32:10.306Z,5.97
2022-08-19T16:34:41.348Z,6.43
2022-08-19T16:37:10.038Z,7.60
2022-08-19T16:39:38.210Z,4.63
2022-08-19T16:42:07.809Z,4.93
2022-08-19T16:44:36.597Z,5.72
2022-08-19T16:47:03.675Z,5.22
2022-08-19T16:49:54.076Z,6.70
2022-08-19T16:52:19.797Z,5.70
2022-08-19T16:54:48.332Z,6.07
2022-08-19T16:57:16.007Z,5.50
2022-08-19T16:59:48.224Z,9.48
2022-08-19T17:02:18.227Z,7.70
2022-08-19T17:04:55.728Z,7.93
2022-08-19T17:07:33.158Z,6.50
2022-08-19T17:10:03.609Z,5.80
2022-08-19T17:12:34.996Z,7.25
2022-08-19T17:15:03.545Z,6.43
2022-08-19T17:17:31.521Z,5.28
2022-08-19T17:20:01.122Z,8.30
2022-08-19T17:22:28.748Z,10.95
2022-08-19T17:24:58.343Z,10.65
2022-08-19T17:27:32.248Z,7.00
2022-08-19T17:30:05.098Z,8.30
2022-08-19T17:32:34.971Z,7.97
2022-08-19T17:35:04.530Z,5.10
2022-08-19T17:37:31.491Z,8.88
2022-08-19T17:39:58.447Z,8.02
2022-08-19T17:42:25.394Z,9.00
2022-08-19T17:44:52.291Z,7.70
2022-08-19T17:47:20.090Z,4.97
2022-08-19T17:49:47.595Z,5.28
2022-08-19T17:52:14.560Z,7.55
2022-08-19T17:54:41.653Z,5.22
2022-08-19T17:57:09.500Z,6.05
2022-08-19T17:59:37.460Z,4.68
2022-08-19T18:02:07.030Z,6.28
2022-08-19T18:04:38.233Z,8.73
2022-08-19T18:07:06.228Z,4.95
2022-08-19T18:09:41.863Z,4.35
2022-08-19T18:12:15.578Z,4.85
2022-08-19T18:14:43.177Z,7.57
2022-08-19T18:17:14.292Z,8.40
2022-08-19T18:19:44.135Z,8.93
2022-08-19T18:22:33.851Z,7.80
2022-08-19T18:25:01.244Z,6.35
2022-08-19T18:27:28.366Z,5.25
2022-08-19T18:29:59.181Z,15.35
2022-08-19T18:32:34.981Z,8.10
2022-08-19T18:35:06.431Z,4.07
2022-08-19T18:37:33.330Z,11.13
2022-08-19T18:40:18.504Z,11.35
2022-08-19T18:43:06.115Z,4.55
2022-08-19T18:45:52.133Z,4.53
2022-08-19T18:48:38.191Z,3.60
2022-08-19T18:51:06.987Z,5.18
2022-08-19T18:53:38.307Z,5.65
2022-08-19T18:56:07.999Z,7.18
2022-08-19T18:58:36.173Z,4.95
2022-08-19T19:01:14.788Z,4.07
2022-08-19T19:03:53.272Z,5.75
2022-08-19T19:06:25.586Z,6.00
2022-08-19T19:08:54.908Z,7.80
2022-08-19T19:11:38.779Z,7.57
2022-08-19T19:14:23.022Z,5.53
2022-08-19T19:17:06.381Z,5.13
2022-08-19T19:19:34.772Z,5.07
2022-08-19T19:22:04.479Z,5.57
2022-08-19T19:24:37.670Z,5.60
2022-08-19T19:27:08.308Z,4.25
2022-08-19T19:29:37.032Z,6.72
2022-08-19T19:32:26.867Z,6.77
2022-08-19T19:34:54.367Z,7.60
2022-08-19T19:37:22.439Z,6.70
2022-08-19T19:39:49.727Z,7.90
2022-08-19T19:42:21.147Z,6.27
2022-08-19T19:44:51.817Z,11.20
2022-08-19T19:47:19.848Z,5.83
2022-08-19T19:52:41.294Z,9.13
2022-08-19T19:55:15.510Z,4.50
2022-08-19T19:57:42.484Z,5.40
2022-08-19T20:00:13.033Z,4.47
2022-08-19T20:02:39.904Z,5.07
2022-08-19T20:05:07.362Z,5.73
2022-08-19T20:07:52.630Z,5.03
2022-08-19T20:10:19.749Z,4.23
2022-08-19T20:12:46.634Z,8.53
2022-08-19T20:15:14.792Z,6.77
2022-08-19T20:17:42.936Z,5.87
2022-08-19T20:20:16.007Z,5.97
2022-08-19T20:22:45.809Z,12.30
2022-08-19T20:25:16.146Z,5.93
2022-08-19T20:27:43.905Z,6.93
2022-08-19T20:30:19.542Z,7.47
2022-08-19T20:32:50.560Z,5.37
2022-08-19T20:35:21.025Z,4.30
2022-08-19T20:37:49.141Z,7.70
2022-08-19T20:40:16.907Z,3.80
2022-08-19T20:42:50.476Z,5.07
2022-08-19T20:45:33.110Z,7.23
2022-08-19T20:48:02.803Z,6.73
2022-08-19T20:50:32.613Z,4.77
2022-08-19T20:52:59.852Z,6.43
2022-08-19T20:55:28.362Z,5.70
2022-08-19T20:57:55.554Z,5.80
2022-08-19T21:00:22.583Z,6.20
2022-08-19T21:02:49.472Z,7.03
2022-08-19T21:05:16.356Z,9.80
2022-08-19T21:07:44.314Z,6.00
2022-08-19T21:10:11.718Z,4.47
2022-08-19T21:12:39.269Z,5.17
2022-08-19T21:15:07.142Z,5.50
2022-08-19T21:17:34.126Z,5.77
2022-08-19T21:20:01.079Z,5.23
2022-08-19T21:22:28.125Z,5.20
2022-08-19T21:24:55.093Z,4.80
2022-08-19T21:27:22.007Z,5.43
2022-08-19T21:29:49.039Z,5.90
2022-08-19T21:32:16.713Z,7.70
2022-08-19T21:34:46.340Z,7.47
2022-08-19T21:37:25.287Z,8.47
2022-08-19T21:39:56.885Z,5.20
2022-08-19T21:42:24.699Z,6.47
2022-08-19T21:44:51.940Z,6.90
2022-08-19T21:47:19.897Z,4.67
2022-08-19T21:49:46.903Z,6.83
2022-08-19T21:52:23.570Z,5.97
2022-08-19T21:54:51.177Z,6.50
2022-08-19T21:57:18.781Z,5.83
2022-08-19T21:59:45.805Z,9.03
2022-08-19T22:02:20.348Z,5.53
2022-08-19T22:04:50.825Z,5.30
2022-08-19T22:07:19.505Z,5.20
2022-08-19T22:09:49.794Z,5.80
2022-08-19T22:12:36.417Z,4.17
2022-08-19T22:15:07.971Z,7.07
2022-08-19T22:17:36.155Z,3.93
2022-08-19T22:20:04.988Z,6.03
2022-08-19T22:22:34.969Z,5.10
2022-08-19T22:25:31.222Z,4.80
2022-08-19T22:28:01.856Z,5.37
2022-08-19T22:30:33.339Z,5.77
2022-08-19T22:33:05.324Z,6.67
2022-08-19T22:35:37.655Z,6.80
2022-08-19T22:38:07.498Z,4.87
2022-08-19T22:40:39.512Z,4.43
2022-08-19T22:43:19.004Z,4.17
2022-08-19T22:45:48.595Z,5.63
2022-08-19T22:48:19.688Z,4.87
2022-08-19T22:51:08.267Z,6.07
2022-08-19T22:53:39.236Z,6.47
2022-08-19T22:56:14.978Z,7.37
2022-08-19T22:58:43.851Z,7.80
2022-08-19T23:01:23.730Z,6.10
2022-08-19T23:03:56.702Z,5.80
2022-08-19T23:06:23.864Z,6.77
2022-08-19T23:09:01.128Z,14.57
2022-08-19T23:11:29.236Z,5.53
2022-08-19T23:13:56.139Z,5.20
2022-08-19T23:16:23.343Z,5.50
2022-08-19T23:18:50.262Z,7.93
2022-08-19T23:21:24.665Z,7.27
2022-08-19T23:23:51.619Z,6.17
2022-08-19T23:26:18.470Z,4.40
2022-08-19T23:29:04.151Z,7.53
2022-08-19T23:31:31.605Z,5.37
2022-08-19T23:33:59.882Z,7.57
2022-08-19T23:36:27.121Z,4.57
2022-08-19T23:38:54.615Z,3.70
2022-08-19T23:41:23.282Z,7.90
2022-08-19T23:43:50.839Z,4.23
2022-08-19T23:46:27.450Z,4.30
2022-08-19T23:48:56.913Z,2.70
2022-08-19T23:51:24.546Z,3.83
2022-08-19T23:53:51.484Z,7.13
2022-08-19T23:56:18.431Z,9.10
2022-08-19T23:58:47.086Z,8.67
